Time;durP1;ratioP1;P1;durP2;ratioP2;P2;SDS_P1;SDS_P2;PMS_P1;PMS_P2;Temp;Humidity;BMP_temperature;BMP_pressure;BME280_temperature;BME280_humidity;BME280_pressure;Samples;Min_cycle;Max_cycle;Signal;HPM_P1;HPM_P2
2021/08/03 00:01:15;;;;;;;3.27;2.17;;;;;;;;;;5012853;28;20177;-86
2021/08/03 00:04:36;;;;;;;4.53;2.60;;;;;;;;;;5003738;28;20548;-87
2021/08/03 00:07:39;;;;;;;8.43;2.23;;;;;;;;;;5012341;28;20189;-87
2021/08/03 00:10:44;;;;;;;4.33;2.10;;;;;;;;;;5001822;28;20180;-87
2021/08/03 00:13:49;;;;;;;3.87;2.03;;;;;;;;;;5023519;28;20213;-86
2021/08/03 00:16:56;;;;;;;3.70;2.17;;;;;;;;;;5001109;28;20169;-86
2021/08/03 00:20:00;;;;;;;2.80;1.87;;;;;;;;;;5012245;28;20188;-86
2021/08/03 00:23:04;;;;;;;3.37;2.10;;;;;;;;;;5000595;28;20192;-86
2021/08/03 00:26:13;;;;;;;3.57;2.43;;;;;;;;;;5012383;28;20173;-87
2021/08/03 00:29:17;;;;;;;3.17;2.10;;;;;;;;;;5004143;28;20185;-86
2021/08/03 00:32:21;;;;;;;3.53;1.93;;;;;;;;;;4992912;28;20189;-87
2021/08/03 00:35:25;;;;;;;3.43;1.90;;;;;;;;;;5000611;28;20216;-86
2021/08/03 00:38:31;;;;;;;2.43;2.23;;;;;;;;;;5000676;28;20192;-86
2021/08/03 00:41:44;;;;;;;3.77;2.07;;;;;;;;;;5000970;28;20177;-86
2021/08/03 00:44:51;;;;;;;3.73;2.30;;;;;;;;;;5011895;28;20220;-86
2021/08/03 00:48:03;;;;;;;3.10;2.17;;;;;;;;;;5011502;28;20200;-86
2021/08/03 00:51:08;;;;;;;4.00;1.50;;;;;;;;;;5011570;28;20192;-86
2021/08/03 00:54:14;;;;;;;4.60;2.30;;;;;;;;;;5022909;28;20228;-86
2021/08/03 00:57:18;;;;;;;2.40;2.10;;;;;;;;;;5000443;28;20189;-86
2021/08/03 01:00:23;;;;;;;2.67;2.33;;;;;;;;;;5011421;28;20209;-86
2021/08/03 01:03:29;;;;;;;4.17;2.50;;;;;;;;;;4992292;28;20217;-86
2021/08/03 01:06:41;;;;;;;3.73;2.13;;;;;;;;;;4992351;28;20193;-86
2021/08/03 01:10:03;;;;;;;2.83;2.23;;;;;;;;;;4992529;28;20189;-86
2021/08/03 01:13:26;;;;;;;3.23;2.10;;;;;;;;;;4981077;28;20637;-86
2021/08/03 01:16:56;;;;;;;3.50;2.10;;;;;;;;;;5010257;28;20205;-86
2021/08/03 01:20:12;;;;;;;2.40;2.03;;;;;;;;;;4992026;28;20201;-86
2021/08/03 01:23:50;;;;;;;5.40;2.07;;;;;;;;;;4981012;28;20190;-86
2021/08/03 01:27:15;;;;;;;2.70;1.83;;;;;;;;;;4995432;28;20196;-86
2021/08/03 01:30:20;;;;;;;3.57;2.10;;;;;;;;;;5011065;28;20185;-86
2021/08/03 01:33:30;;;;;;;2.97;2.00;;;;;;;;;;4991785;28;20221;-86
2021/08/03 01:36:39;;;;;;;5.47;2.20;;;;;;;;;;4997008;28;20568;-86
2021/08/03 01:39:50;;;;;;;2.20;2.00;;;;;;;;;;5021810;28;20201;-86
2021/08/03 01:42:55;;;;;;;2.90;2.30;;;;;;;;;;5000359;28;20177;-86
2021/08/03 01:46:02;;;;;;;6.07;2.07;;;;;;;;;;5022614;28;20185;-86
2021/08/03 01:49:10;;;;;;;3.83;2.00;;;;;;;;;;5014296;28;20190;-86
2021/08/03 01:52:18;;;;;;;3.80;2.00;;;;;;;;;;5006135;28;20201;-86
2021/08/03 01:55:27;;;;;;;2.30;2.00;;;;;;;;;;5021725;28;20220;-86
2021/08/03 01:58:36;;;;;;;3.17;2.60;;;;;;;;;;4980575;28;20181;-86
2021/08/03 02:01:52;;;;;;;3.57;2.30;;;;;;;;;;4987501;28;20193;-86
2021/08/03 02:04:57;;;;;;;2.77;2.33;;;;;;;;;;4979851;28;20217;-86
2021/08/03 02:08:02;;;;;;;3.77;2.20;;;;;;;;;;4994885;28;20189;-85
2021/08/03 02:11:08;;;;;;;2.60;2.40;;;;;;;;;;4989671;28;20196;-86
2021/08/03 02:14:14;;;;;;;3.13;2.20;;;;;;;;;;5011095;28;20557;-86
2021/08/03 02:17:44;;;;;;;3.30;2.40;;;;;;;;;;5013945;28;20189;-86
2021/08/03 02:21:01;;;;;;;2.50;1.97;;;;;;;;;;5021751;28;20652;-85
2021/08/03 02:24:09;;;;;;;4.03;2.00;;;;;;;;;;4999507;28;20220;-85
2021/08/03 02:27:13;;;;;;;3.20;1.90;;;;;;;;;;4998815;28;20188;-85
2021/08/03 02:30:17;;;;;;;3.73;2.20;;;;;;;;;;4999062;28;20177;-85
2021/08/03 02:33:36;;;;;;;2.10;1.90;;;;;;;;;;5015193;28;20220;-85
2021/08/03 02:36:47;;;;;;;4.70;2.47;;;;;;;;;;5024896;28;20213;-86
2021/08/03 02:39:55;;;;;;;4.80;2.43;;;;;;;;;;5013778;28;20197;-85
2021/08/03 02:43:01;;;;;;;6.97;2.70;;;;;;;;;;5003273;28;20181;-85
2021/08/03 02:46:09;;;;;;;2.90;2.20;;;;;;;;;;4985092;28;20182;-85
2021/08/03 02:49:17;;;;;;;3.13;2.13;;;;;;;;;;5014328;28;20284;-85
2021/08/03 02:52:26;;;;;;;3.83;2.43;;;;;;;;;;5014722;28;20181;-85
2021/08/03 02:55:33;;;;;;;2.37;2.13;;;;;;;;;;5002331;28;20217;-85
2021/08/03 02:58:44;;;;;;;7.47;2.00;;;;;;;;;;4983529;28;20209;-86
2021/08/03 03:01:52;;;;;;;4.23;2.40;;;;;;;;;;4994709;28;20182;-86
2021/08/03 03:05:02;;;;;;;3.83;1.83;;;;;;;;;;5021864;28;20220;-86
2021/08/03 03:08:11;;;;;;;2.53;2.03;;;;;;;;;;5002091;28;20193;-85
2021/08/03 03:11:17;;;;;;;2.13;1.90;;;;;;;;;;5013849;28;20201;-85
2021/08/03 03:14:25;;;;;;;2.83;1.80;;;;;;;;;;5002360;28;20694;-85
2021/08/03 03:17:33;;;;;;;1.83;1.60;;;;;;;;;;5001993;28;20196;-86
2021/08/03 03:20:38;;;;;;;3.30;1.90;;;;;;;;;;5013582;28;20205;-85
2021/08/03 03:23:48;;;;;;;2.37;1.80;;;;;;;;;;5002709;28;20220;-86
2021/08/03 03:26:54;;;;;;;3.33;1.70;;;;;;;;;;4998039;28;20197;-86
2021/08/03 03:30:00;;;;;;;2.43;1.77;;;;;;;;;;5009784;28;20189;-86
2021/08/03 03:33:05;;;;;;;4.57;1.93;;;;;;;;;;5000123;28;20188;-86
2021/08/03 03:36:15;;;;;;;3.20;2.10;;;;;;;;;;4998733;28;20216;-85
2021/08/03 03:39:21;;;;;;;2.13;1.70;;;;;;;;;;4998399;28;20671;-86
2021/08/03 03:42:32;;;;;;;1.80;1.50;;;;;;;;;;4998569;28;20193;-86
2021/08/03 03:45:38;;;;;;;2.57;1.80;;;;;;;;;;5020028;28;20204;-86
2021/08/03 03:49:11;;;;;;;2.00;1.80;;;;;;;;;;4998202;28;20185;-86
2021/08/03 03:52:19;;;;;;;3.77;1.70;;;;;;;;;;5020437;28;20177;-86
2021/08/03 03:55:24;;;;;;;1.87;1.60;;;;;;;;;;4995536;28;20237;-86
2021/08/03 03:58:32;;;;;;;3.10;1.53;;;;;;;;;;5020295;28;20197;-86
2021/08/03 04:01:38;;;;;;;3.93;1.70;;;;;;;;;;5009512;28;20205;-86
2021/08/03 04:04:43;;;;;;;2.17;1.60;;;;;;;;;;4997825;28;20220;-86
2021/08/03 04:07:49;;;;;;;1.87;1.63;;;;;;;;;;5008708;28;20525;-86
2021/08/03 04:11:00;;;;;;;3.40;1.60;;;;;;;;;;4978043;28;20185;-86
2021/08/03 04:14:05;;;;;;;16.60;2.40;;;;;;;;;;4989082;28;20229;-86
2021/08/03 04:17:09;;;;;;;3.23;1.90;;;;;;;;;;5003073;28;20224;-86
2021/08/03 04:20:15;;;;;;;2.50;1.60;;;;;;;;;;4998166;28;20200;-86
2021/08/03 04:23:19;;;;;;;4.40;1.93;;;;;;;;;;4997232;28;20184;-86
2021/08/03 04:26:23;;;;;;;2.80;1.93;;;;;;;;;;5008375;28;20193;-85
2021/08/03 04:29:28;;;;;;;2.77;1.97;;;;;;;;;;5008450;28;20204;-86
2021/08/03 04:32:32;;;;;;;1.57;1.43;;;;;;;;;;5023629;28;20517;-87
2021/08/03 04:35:36;;;;;;;4.83;2.50;;;;;;;;;;5013208;28;20517;-85
2021/08/03 04:38:40;;;;;;;2.30;2.10;;;;;;;;;;5001970;28;20208;-85
2021/08/03 04:41:45;;;;;;;4.73;2.03;;;;;;;;;;5002618;28;20176;-85
2021/08/03 04:44:48;;;;;;;3.93;2.33;;;;;;;;;;5012831;28;20228;-85
2021/08/03 04:47:53;;;;;;;3.93;2.10;;;;;;;;;;5013347;28;20513;-85
2021/08/03 04:50:57;;;;;;;1.77;1.40;;;;;;;;;;5000961;28;20189;-86
2021/08/03 04:54:01;;;;;;;4.20;1.73;;;;;;;;;;5000215;28;20224;-86
2021/08/03 04:57:06;;;;;;;2.50;1.30;;;;;;;;;;5003662;28;20664;-86
2021/08/03 05:00:13;;;;;;;2.27;1.40;;;;;;;;;;4981092;28;20185;-86
2021/08/03 05:03:17;;;;;;;2.03;1.60;;;;;;;;;;4993015;28;20629;-86
2021/08/03 05:06:21;;;;;;;3.07;1.60;;;;;;;;;;4990108;28;20649;-85
2021/08/03 05:09:25;;;;;;;3.57;1.60;;;;;;;;;;4992157;28;20201;-85
2021/08/03 05:12:30;;;;;;;2.97;1.90;;;;;;;;;;4992166;28;20177;-86
2021/08/03 05:15:35;;;;;;;2.40;2.00;;;;;;;;;;5003139;28;20184;-86
2021/08/03 05:18:39;;;;;;;4.70;2.20;;;;;;;;;;5000755;28;20209;-85
2021/08/03 05:21:43;;;;;;;4.57;1.80;;;;;;;;;;5011754;28;20243;-86
2021/08/03 05:24:47;;;;;;;3.70;2.00;;;;;;;;;;5000035;28;20556;-86
2021/08/03 05:27:51;;;;;;;2.17;1.97;;;;;;;;;;5012103;28;20176;-86
2021/08/03 05:30:56;;;;;;;2.17;1.97;;;;;;;;;;5000553;28;20180;-86
2021/08/03 05:34:01;;;;;;;6.50;1.93;;;;;;;;;;5000370;28;20224;-85
2021/08/03 05:37:06;;;;;;;4.20;2.27;;;;;;;;;;5009626;28;20209;-87
2021/08/03 05:40:12;;;;;;;3.63;2.47;;;;;;;;;;5002628;28;20193;-87
2021/08/03 05:43:16;;;;;;;8.57;2.10;;;;;;;;;;5001502;23;20205;-75
2021/08/03 05:46:20;;;;;;;7.87;2.40;;;;;;;;;;4992231;28;20692;-74
2021/08/03 05:49:26;;;;;;;4.90;2.90;;;;;;;;;;4994141;28;20197;-74
2021/08/03 05:52:30;;;;;;;5.17;2.33;;;;;;;;;;4993960;28;20213;-73
2021/08/03 05:55:34;;;;;;;5.70;2.70;;;;;;;;;;4992058;28;20190;-74
2021/08/03 05:58:38;;;;;;;4.60;2.30;;;;;;;;;;4992922;28;20182;-74
2021/08/03 06:01:42;;;;;;;6.77;2.30;;;;;;;;;;4981644;28;20198;-74
2021/08/03 06:04:46;;;;;;;5.17;2.43;;;;;;;;;;4993569;28;20198;-74
2021/08/03 06:07:52;;;;;;;7.00;2.80;;;;;;;;;;5000435;28;20649;-74
2021/08/03 06:10:58;;;;;;;3.77;2.33;;;;;;;;;;4988212;28;20190;-73
2021/08/03 06:14:07;;;;;;;5.03;2.37;;;;;;;;;;4993587;28;20707;-74
2021/08/03 06:17:15;;;;;;;3.73;2.00;;;;;;;;;;4992820;28;20210;-74
2021/08/03 06:20:19;;;;;;;3.00;2.00;;;;;;;;;;4992877;28;20186;-74
2021/08/03 06:23:24;;;;;;;4.00;2.50;;;;;;;;;;4993675;28;20222;-74
2021/08/03 06:26:29;;;;;;;4.27;2.27;;;;;;;;;;4994064;28;20182;-74
2021/08/03 06:29:35;;;;;;;4.13;1.80;;;;;;;;;;4993504;28;20207;-74
2021/08/03 06:32:42;;;;;;;2.90;1.80;;;;;;;;;;4993402;28;20225;-74
2021/08/03 06:35:48;;;;;;;7.40;3.07;;;;;;;;;;4992443;28;20661;-74
2021/08/03 06:38:53;;;;;;;3.27;2.13;;;;;;;;;;4993090;28;20190;-74
2021/08/03 06:42:15;;;;;;;2.17;1.80;;;;;;;;;;4992140;28;20186;-74
2021/08/03 06:45:24;;;;;;;7.13;1.90;;;;;;;;;;4988991;28;20218;-74
2021/08/03 06:48:31;;;;;;;9.33;4.00;;;;;;;;;;4992407;28;20190;-74
2021/08/03 06:51:37;;;;;;;4.43;2.40;;;;;;;;;;4976361;28;20531;-74
2021/08/03 06:54:48;;;;;;;2.33;1.90;;;;;;;;;;4981682;28;20202;-74
2021/08/03 06:57:54;;;;;;;3.20;2.00;;;;;;;;;;4985627;28;20218;-74
2021/08/03 07:01:01;;;;;;;2.37;2.17;;;;;;;;;;4993772;28;20208;-75
2021/08/03 07:04:08;;;;;;;5.67;2.10;;;;;;;;;;4993133;28;20225;-74
2021/08/03 07:07:13;;;;;;;4.90;2.10;;;;;;;;;;4981695;28;20531;-74
2021/08/03 07:10:17;;;;;;;2.80;1.80;;;;;;;;;;4969894;28;20190;-74
2021/08/03 07:13:21;;;;;;;2.53;1.93;;;;;;;;;;4992694;28;20221;-74
2021/08/03 07:16:28;;;;;;;2.80;1.93;;;;;;;;;;4992408;28;20206;-73
2021/08/03 07:19:33;;;;;;;2.77;1.80;;;;;;;;;;5006364;28;20206;-76
2021/08/03 07:22:39;;;;;;;4.33;1.90;;;;;;;;;;4995273;28;20226;-74
2021/08/03 07:25:44;;;;;;;2.50;2.00;;;;;;;;;;4983603;28;20198;-74
2021/08/03 07:28:48;;;;;;;3.10;1.70;;;;;;;;;;4995744;28;20190;-75
2021/08/03 07:31:52;;;;;;;4.50;1.43;;;;;;;;;;4993704;28;20223;-75
2021/08/03 07:34:56;;;;;;;3.27;1.40;;;;;;;;;;4997088;28;20178;-74
2021/08/03 07:38:01;;;;;;;4.13;1.43;;;;;;;;;;4994810;28;20542;-75
2021/08/03 07:41:05;;;;;;;3.03;1.50;;;;;;;;;;4996989;28;20186;-75
2021/08/03 07:44:09;;;;;;;2.03;1.70;;;;;;;;;;4996496;28;20225;-75
2021/08/03 07:47:13;;;;;;;2.67;1.50;;;;;;;;;;4996625;28;20186;-75
2021/08/03 07:50:19;;;;;;;4.50;1.87;;;;;;;;;;4996605;28;20526;-75
2021/08/03 07:53:23;;;;;;;2.77;1.57;;;;;;;;;;4996182;28;20218;-75
2021/08/03 07:56:27;;;;;;;3.93;1.50;;;;;;;;;;4995590;28;20182;-75
2021/08/03 07:59:31;;;;;;;5.37;1.70;;;;;;;;;;4995478;28;20182;-75
2021/08/03 08:02:35;;;;;;;2.30;1.40;;;;;;;;;;4996299;28;20570;-75
2021/08/03 08:05:40;;;;;;;2.87;1.40;;;;;;;;;;4996612;28;20178;-74
2021/08/03 08:08:44;;;;;;;3.23;1.67;;;;;;;;;;4995920;28;20194;-75
2021/08/03 08:11:48;;;;;;;4.83;2.63;;;;;;;;;;4996375;28;20205;-75
2021/08/03 08:14:52;;;;;;;4.03;1.20;;;;;;;;;;4996223;28;20187;-75
2021/08/03 08:17:56;;;;;;;3.67;1.37;;;;;;;;;;4995861;28;20202;-75
2021/08/03 08:21:00;;;;;;;3.70;1.50;;;;;;;;;;4995790;28;20190;-75
2021/08/03 08:24:05;;;;;;;3.23;1.50;;;;;;;;;;4995615;28;20710;-75
2021/08/03 08:27:10;;;;;;;6.67;1.60;;;;;;;;;;4995143;28;20201;-75
2021/08/03 08:30:14;;;;;;;1.93;1.30;;;;;;;;;;4994963;28;20208;-75
2021/08/03 08:33:19;;;;;;;1.53;1.27;;;;;;;;;;4995202;28;20229;-75
2021/08/03 08:36:23;;;;;;;2.50;1.30;;;;;;;;;;4995315;28;20193;-75
2021/08/03 08:39:27;;;;;;;1.30;1.17;;;;;;;;;;4995176;28;20183;-75
2021/08/03 08:42:33;;;;;;;1.60;1.00;;;;;;;;;;4982815;28;20703;-75
2021/08/03 08:45:37;;;;;;;2.30;1.00;;;;;;;;;;4994671;28;20201;-75
2021/08/03 08:48:43;;;;;;;1.27;1.00;;;;;;;;;;4993589;28;20196;-75
2021/08/03 08:51:48;;;;;;;1.53;1.00;;;;;;;;;;4975679;28;20282;-75
2021/08/03 08:54:53;;;;;;;1.90;1.03;;;;;;;;;;4987453;28;20202;-75
2021/08/03 08:57:57;;;;;;;2.97;0.90;;;;;;;;;;4995064;28;20209;-75
2021/08/03 09:01:03;;;;;;;1.77;1.38;;;;;;;;;;4995186;28;20642;-76
2021/08/03 09:04:07;;;;;;;1.13;0.95;;;;;;;;;;5005078;28;20222;-75
2021/08/03 09:07:11;;;;;;;2.78;0.80;;;;;;;;;;4990189;28;20184;-75
2021/08/03 09:10:37;;;;;;;4.10;1.35;;;;;;;;;;4975405;28;20182;-75
2021/08/03 09:13:51;;;;;;;1.20;0.85;;;;;;;;;;4975672;28;20686;-75
2021/08/03 09:16:56;;;;;;;0.77;0.77;;;;;;;;;;4994113;28;20189;-75
2021/08/03 09:20:12;;;;;;;1.98;0.70;;;;;;;;;;4994923;28;20635;-75
2021/08/03 09:23:16;;;;;;;1.73;0.60;;;;;;;;;;4991995;28;20225;-75
2021/08/03 09:26:46;;;;;;;1.00;0.80;;;;;;;;;;4994772;28;20521;-74
2021/08/03 09:29:50;;;;;;;3.08;0.90;;;;;;;;;;4977506;28;20196;-75
2021/08/03 09:32:55;;;;;;;1.10;0.93;;;;;;;;;;4986085;28;20699;-75
2021/08/03 09:35:59;;;;;;;1.80;0.80;;;;;;;;;;4980868;28;20550;-75
2021/08/03 09:39:03;;;;;;;3.83;1.02;;;;;;;;;;4994265;28;20674;-75
2021/08/03 09:42:15;;;;;;;1.67;0.90;;;;;;;;;;4992268;28;20706;-75
2021/08/03 09:45:19;;;;;;;1.85;0.88;;;;;;;;;;4994140;28;20209;-75
2021/08/03 09:48:25;;;;;;;3.03;1.25;;;;;;;;;;4993781;28;20200;-75
2021/08/03 09:51:29;;;;;;;2.72;0.90;;;;;;;;;;4993088;28;20206;-75
2021/08/03 09:54:35;;;;;;;1.80;1.10;;;;;;;;;;4993853;28;20188;-75
2021/08/03 09:57:41;;;;;;;1.25;0.70;;;;;;;;;;4982544;28;20208;-75
2021/08/03 10:00:45;;;;;;;1.98;0.85;;;;;;;;;;4992860;28;20188;-75
2021/08/03 10:03:51;;;;;;;2.13;1.00;;;;;;;;;;4982287;28;20223;-75
2021/08/03 10:06:57;;;;;;;2.55;0.95;;;;;;;;;;4999729;28;20209;-75
2021/08/03 10:10:01;;;;;;;1.20;0.90;;;;;;;;;;4993976;28;20184;-75
2021/08/03 10:13:05;;;;;;;1.30;1.10;;;;;;;;;;4993591;28;20547;-75
2021/08/03 10:16:10;;;;;;;4.07;1.20;;;;;;;;;;4994220;28;20181;-75
2021/08/03 10:19:24;;;;;;;2.42;1.17;;;;;;;;;;4982183;28;20209;-75
2021/08/03 10:22:33;;;;;;;2.38;0.90;;;;;;;;;;4974319;28;20224;-75
2021/08/03 10:25:40;;;;;;;1.08;0.85;;;;;;;;;;4981857;28;20209;-75
2021/08/03 10:28:44;;;;;;;1.52;0.93;;;;;;;;;;4993759;28;20195;-75
2021/08/03 10:31:49;;;;;;;3.15;0.90;;;;;;;;;;4992666;28;20196;-75
2021/08/03 10:34:53;;;;;;;4.47;1.20;;;;;;;;;;4993660;28;20197;-75
2021/08/03 10:38:00;;;;;;;1.77;1.30;;;;;;;;;;4993778;28;20225;-75
2021/08/03 10:41:06;;;;;;;1.33;0.80;;;;;;;;;;4984685;28;20197;-74
2021/08/03 10:44:37;;;;;;;2.03;1.10;;;;;;;;;;5001798;28;20232;-75
2021/08/03 10:47:43;;;;;;;1.77;0.90;;;;;;;;;;4994099;28;20509;-75
2021/08/03 10:50:47;;;;;;;1.52;1.00;;;;;;;;;;4981423;28;20187;-75
2021/08/03 10:53:51;;;;;;;1.05;0.82;;;;;;;;;;4995521;28;20221;-75
2021/08/03 10:56:58;;;;;;;1.50;1.08;;;;;;;;;;4995490;28;20192;-75
2021/08/03 11:00:03;;;;;;;1.65;1.00;;;;;;;;;;4996361;28;20184;-75
2021/08/03 11:03:46;;;;;;;6.07;1.40;;;;;;;;;;4997276;28;20220;-75
2021/08/03 11:06:50;;;;;;;1.23;0.90;;;;;;;;;;4947898;29;20193;-76
2021/08/03 11:09:59;;;;;;;1.45;0.80;;;;;;;;;;4952441;29;20190;-76
2021/08/03 11:13:03;;;;;;;1.50;0.70;;;;;;;;;;4994870;28;20221;-75
2021/08/03 11:16:19;;;;;;;1.50;1.00;;;;;;;;;;4991629;28;20199;-75
2021/08/03 11:19:29;;;;;;;1.48;0.90;;;;;;;;;;4967942;28;20593;-74
2021/08/03 11:22:52;;;;;;;0.80;0.80;;;;;;;;;;4996672;28;20211;-75
2021/08/03 11:26:03;;;;;;;1.08;0.70;;;;;;;;;;4996329;28;20638;-74
2021/08/03 11:29:09;;;;;;;4.72;1.00;;;;;;;;;;4996054;28;20199;-75
2021/08/03 11:32:19;;;;;;;1.40;0.90;;;;;;;;;;4995837;28;20227;-75
2021/08/03 11:35:25;;;;;;;1.27;0.93;;;;;;;;;;4994120;28;20196;-76
2021/08/03 11:38:30;;;;;;;1.70;0.93;;;;;;;;;;4978386;28;20645;-75
2021/08/03 11:41:46;;;;;;;1.48;0.85;;;;;;;;;;4994489;28;20527;-75
2021/08/03 11:45:07;;;;;;;1.83;0.75;;;;;;;;;;4986516;28;20211;-75
2021/08/03 11:48:25;;;;;;;1.80;0.82;;;;;;;;;;4987354;28;20185;-75
2021/08/03 11:51:46;;;;;;;1.67;0.98;;;;;;;;;;4996243;28;20190;-75
2021/08/03 11:54:54;;;;;;;1.73;1.20;;;;;;;;;;4996239;28;20193;-75
2021/08/03 11:57:58;;;;;;;2.10;1.20;;;;;;;;;;4996075;28;20219;-75
2021/08/03 12:01:05;;;;;;;2.00;0.85;;;;;;;;;;4991932;28;20532;-76
2021/08/03 12:04:14;;;;;;;2.50;1.10;;;;;;;;;;4995343;28;20225;-75
2021/08/03 12:07:18;;;;;;;1.52;1.05;;;;;;;;;;4995642;28;20668;-75
2021/08/03 12:10:28;;;;;;;1.92;0.70;;;;;;;;;;4984750;28;20647;-75
2021/08/03 12:13:37;;;;;;;1.48;1.00;;;;;;;;;;4986718;28;20219;-75
2021/08/03 12:16:43;;;;;;;1.52;0.93;;;;;;;;;;4993424;28;20209;-75
2021/08/03 12:19:47;;;;;;;2.40;1.20;;;;;;;;;;4995284;28;20228;-75
2021/08/03 12:22:51;;;;;;;1.67;0.90;;;;;;;;;;4995499;28;20707;-75
2021/08/03 12:26:03;;;;;;;1.80;0.93;;;;;;;;;;5017806;28;20189;-75
2021/08/03 12:29:07;;;;;;;1.35;0.90;;;;;;;;;;4995818;28;20189;-75
2021/08/03 12:32:11;;;;;;;3.58;1.10;;;;;;;;;;4976047;28;20232;-75
2021/08/03 12:35:15;;;;;;;0.95;0.85;;;;;;;;;;4982239;28;20193;-75
2021/08/03 12:38:19;;;;;;;2.05;1.00;;;;;;;;;;4994852;28;20221;-75
2021/08/03 12:41:30;;;;;;;1.65;1.02;;;;;;;;;;4995865;28;20178;-76
2021/08/03 12:44:37;;;;;;;1.42;0.95;;;;;;;;;;4994355;28;20206;-76
2021/08/03 12:48:03;;;;;;;2.33;1.02;;;;;;;;;;4994289;28;20202;-76
2021/08/03 12:51:07;;;;;;;1.00;0.90;;;;;;;;;;4986241;28;20188;-75
2021/08/03 12:54:13;;;;;;;3.40;1.13;;;;;;;;;;4997277;28;20205;-75
2021/08/03 12:57:18;;;;;;;3.08;1.10;;;;;;;;;;5005049;28;20186;-75
2021/08/03 13:00:35;;;;;;;1.40;1.20;;;;;;;;;;4994610;28;20192;-75
2021/08/03 13:03:39;;;;;;;2.53;1.10;;;;;;;;;;4994441;28;20249;-75
2021/08/03 13:07:00;;;;;;;2.60;1.13;;;;;;;;;;4994747;28;20198;-75
2021/08/03 13:10:04;;;;;;;2.38;1.00;;;;;;;;;;4995365;28;20619;-75
2021/08/03 13:13:08;;;;;;;1.58;1.05;;;;;;;;;;4993685;28;20579;-75
2021/08/03 13:16:12;;;;;;;4.07;0.90;;;;;;;;;;4992453;28;20538;-75
2021/08/03 13:19:16;;;;;;;2.45;1.10;;;;;;;;;;4992954;28;20230;-75
2021/08/03 13:22:21;;;;;;;2.22;1.25;;;;;;;;;;4982145;28;20221;-75
2021/08/03 13:25:25;;;;;;;9.53;1.57;;;;;;;;;;4981328;28;20196;-75
2021/08/03 13:28:29;;;;;;;3.50;1.10;;;;;;;;;;4982835;28;20178;-75
2021/08/03 13:31:33;;;;;;;2.37;1.30;;;;;;;;;;4963211;28;20185;-75
2021/08/03 13:34:37;;;;;;;3.50;1.00;;;;;;;;;;4985387;28;20187;-75
2021/08/03 13:37:41;;;;;;;1.00;0.90;;;;;;;;;;4974376;28;20179;-74
2021/08/03 13:40:46;;;;;;;1.90;1.40;;;;;;;;;;4988253;28;20199;-75
2021/08/03 13:43:50;;;;;;;2.63;1.30;;;;;;;;;;4990741;28;20229;-75
2021/08/03 13:46:55;;;;;;;3.03;1.40;;;;;;;;;;4989858;28;20643;-75
2021/08/03 13:50:00;;;;;;;2.33;1.30;;;;;;;;;;4990547;28;20660;-75
2021/08/03 13:53:04;;;;;;;2.40;1.50;;;;;;;;;;4989600;28;20218;-75
2021/08/03 13:56:11;;;;;;;4.10;1.40;;;;;;;;;;4979334;28;20187;-75
2021/08/03 13:59:16;;;;;;;7.83;2.10;;;;;;;;;;4987803;28;20222;-78
2021/08/03 14:02:20;;;;;;;15.30;2.97;;;;;;;;;;4959856;28;20226;-76
2021/08/03 14:05:24;;;;;;;5.90;1.77;;;;;;;;;;4971900;28;20175;-75
2021/08/03 14:08:29;;;;;;;6.20;1.90;;;;;;;;;;4977630;28;20198;-75
2021/08/03 14:11:33;;;;;;;8.03;1.97;;;;;;;;;;4990872;28;20186;-75
2021/08/03 14:14:38;;;;;;;5.37;1.90;;;;;;;;;;4991741;28;20194;-75
2021/08/03 14:17:42;;;;;;;7.77;2.17;;;;;;;;;;4991654;28;20170;-75
2021/08/03 14:20:46;;;;;;;6.17;2.10;;;;;;;;;;4972358;28;20183;-75
2021/08/03 14:23:51;;;;;;;4.13;1.97;;;;;;;;;;4986585;28;20221;-75
2021/08/03 14:26:55;;;;;;;3.00;1.70;;;;;;;;;;4973399;28;20194;-75
2021/08/03 14:30:00;;;;;;;2.37;1.60;;;;;;;;;;4995364;28;20524;-75
2021/08/03 14:33:04;;;;;;;3.57;1.80;;;;;;;;;;4995378;28;20218;-75
2021/08/03 14:36:09;;;;;;;4.27;2.20;;;;;;;;;;4995452;28;20245;-75
2021/08/03 14:39:13;;;;;;;1.93;1.80;;;;;;;;;;4995493;28;20216;-75
2021/08/03 14:42:17;;;;;;;5.97;2.00;;;;;;;;;;4974764;28;20697;-75
2021/08/03 14:45:21;;;;;;;4.63;2.10;;;;;;;;;;4990964;28;20208;-75
2021/08/03 14:48:26;;;;;;;2.90;1.70;;;;;;;;;;4990345;28;20200;-75
2021/08/03 14:51:30;;;;;;;3.80;1.83;;;;;;;;;;4995295;28;20635;-75
2021/08/03 14:54:34;;;;;;;3.95;1.98;;;;;;;;;;4994415;28;20727;-75
2021/08/03 14:57:39;;;;;;;4.57;2.00;;;;;;;;;;4991725;28;20190;-75
2021/08/03 15:00:43;;;;;;;2.75;1.73;;;;;;;;;;4992581;28;20220;-75
2021/08/03 15:03:47;;;;;;;2.28;1.83;;;;;;;;;;4993661;28;20220;-75
2021/08/03 15:06:52;;;;;;;2.90;2.05;;;;;;;;;;4994239;28;20188;-75
2021/08/03 15:09:56;;;;;;;1.98;1.80;;;;;;;;;;4994128;28;20179;-75
2021/08/03 15:13:00;;;;;;;4.85;1.63;;;;;;;;;;4994476;28;20217;-75
2021/08/03 15:16:05;;;;;;;7.00;2.00;;;;;;;;;;4992730;28;20200;-75
2021/08/03 15:19:09;;;;;;;2.83;1.70;;;;;;;;;;4985165;28;20211;-75
2021/08/03 15:22:13;;;;;;;2.00;1.50;;;;;;;;;;4992736;28;20223;-75
2021/08/03 15:25:17;;;;;;;1.77;1.40;;;;;;;;;;4992279;28;20537;-75
2021/08/03 15:28:21;;;;;;;1.45;1.33;;;;;;;;;;4992871;28;20488;-75
2021/08/03 15:31:26;;;;;;;2.60;1.50;;;;;;;;;;4992961;28;20200;-75
2021/08/03 15:34:31;;;;;;;2.23;1.60;;;;;;;;;;4982372;28;20176;-75
2021/08/03 15:37:35;;;;;;;1.97;1.30;;;;;;;;;;4992556;28;20194;-75
2021/08/03 15:40:39;;;;;;;1.77;1.50;;;;;;;;;;4992049;28;20217;-75
2021/08/03 15:43:44;;;;;;;3.67;1.40;;;;;;;;;;4991775;28;20254;-75
2021/08/03 15:46:48;;;;;;;5.27;2.10;;;;;;;;;;4990752;28;20536;-75
2021/08/03 15:49:52;;;;;;;2.03;1.50;;;;;;;;;;4991778;28;20199;-75
2021/08/03 15:52:56;;;;;;;1.53;1.00;;;;;;;;;;4992210;28;20223;-75
2021/08/03 15:56:01;;;;;;;2.47;1.50;;;;;;;;;;4981466;28;20722;-75
2021/08/03 15:59:07;;;;;;;2.50;1.50;;;;;;;;;;4991853;28;20211;-75
2021/08/03 16:02:11;;;;;;;3.83;2.30;;;;;;;;;;5006724;28;20229;-76
2021/08/03 16:05:16;;;;;;;1.50;1.40;;;;;;;;;;5011563;28;20197;-75
2021/08/03 16:08:21;;;;;;;10.60;1.57;;;;;;;;;;4989821;28;20194;-74
2021/08/03 16:11:25;;;;;;;2.40;1.17;;;;;;;;;;4993086;28;20203;-74
2021/08/03 16:14:32;;;;;;;1.93;1.23;;;;;;;;;;4993095;28;20629;-75
2021/08/03 16:17:41;;;;;;;2.70;1.30;;;;;;;;;;4969152;28;20206;-74
2021/08/03 16:20:45;;;;;;;2.57;1.43;;;;;;;;;;4992100;28;20226;-75
2021/08/03 16:23:51;;;;;;;2.03;1.40;;;;;;;;;;4992788;28;20226;-75
2021/08/03 16:26:55;;;;;;;4.00;1.40;;;;;;;;;;4992627;28;20198;-75
2021/08/03 16:30:00;;;;;;;2.57;1.40;;;;;;;;;;4991761;28;20186;-75
2021/08/03 16:33:06;;;;;;;1.43;1.20;;;;;;;;;;4991733;28;20209;-75
2021/08/03 16:36:13;;;;;;;1.60;1.30;;;;;;;;;;4981788;28;20198;-75
2021/08/03 16:39:17;;;;;;;1.70;1.57;;;;;;;;;;4993000;28;20222;-75
2021/08/03 16:42:22;;;;;;;2.47;1.60;;;;;;;;;;4992634;28;20217;-75
2021/08/03 16:45:27;;;;;;;1.83;1.20;;;;;;;;;;4981217;28;20213;-75
2021/08/03 16:48:31;;;;;;;2.53;1.30;;;;;;;;;;4993282;28;20661;-74
2021/08/03 16:51:35;;;;;;;3.80;1.70;;;;;;;;;;4991331;28;20194;-75
2021/08/03 16:54:41;;;;;;;1.60;1.50;;;;;;;;;;4990626;28;20190;-75
2021/08/03 16:57:45;;;;;;;1.50;1.30;;;;;;;;;;4991696;28;20202;-75
2021/08/03 17:01:01;;;;;;;2.10;1.57;;;;;;;;;;4990698;28;20550;-75
2021/08/03 17:04:29;;;;;;;1.60;1.10;;;;;;;;;;4984999;28;20688;-75
2021/08/03 17:08:01;;;;;;;1.73;1.30;;;;;;;;;;4991677;28;20194;-75
2021/08/03 17:11:18;;;;;;;1.50;1.23;;;;;;;;;;4990877;28;20194;-75
2021/08/03 17:14:27;;;;;;;1.53;1.10;;;;;;;;;;4992589;28;20186;-75
2021/08/03 17:17:36;;;;;;;2.20;1.37;;;;;;;;;;4991704;28;20519;-75
2021/08/03 17:20:43;;;;;;;1.90;1.43;;;;;;;;;;4992282;28;20214;-75
2021/08/03 17:23:56;;;;;;;2.40;1.30;;;;;;;;;;4991422;28;20218;-75
2021/08/03 17:27:01;;;;;;;2.67;1.43;;;;;;;;;;4979875;28;20788;-74
2021/08/03 17:30:05;;;;;;;1.47;1.37;;;;;;;;;;4991211;28;20629;-74
2021/08/03 17:33:10;;;;;;;2.40;1.53;;;;;;;;;;4991868;28;20221;-74
2021/08/03 17:36:15;;;;;;;3.77;1.20;;;;;;;;;;4991070;28;20186;-74
2021/08/03 17:39:19;;;;;;;2.33;1.20;;;;;;;;;;4991953;28;20206;-74
2021/08/03 17:42:24;;;;;;;1.67;1.47;;;;;;;;;;4991896;28;20217;-75
2021/08/03 17:45:28;;;;;;;1.63;1.40;;;;;;;;;;5002078;28;20210;-74
2021/08/03 17:48:33;;;;;;;1.73;1.20;;;;;;;;;;4991602;28;20198;-75
2021/08/03 17:51:38;;;;;;;1.70;1.50;;;;;;;;;;4979836;28;20206;-74
2021/08/03 17:54:45;;;;;;;1.80;1.70;;;;;;;;;;4990695;28;20190;-75
2021/08/03 17:57:50;;;;;;;3.37;1.43;;;;;;;;;;4991597;28;20206;-74
2021/08/03 18:00:56;;;;;;;1.87;1.43;;;;;;;;;;4991529;28;20214;-75
2021/08/03 18:04:00;;;;;;;3.70;1.80;;;;;;;;;;4990966;28;20221;-74
2021/08/03 18:07:05;;;;;;;1.70;1.30;;;;;;;;;;4991354;28;20198;-75
2021/08/03 18:10:19;;;;;;;2.30;1.10;;;;;;;;;;4991882;28;20926;-74
2021/08/03 18:13:25;;;;;;;1.90;1.40;;;;;;;;;;4991449;28;20562;-74
2021/08/03 18:16:35;;;;;;;1.40;1.30;;;;;;;;;;4989921;28;20194;-74
2021/08/03 18:19:39;;;;;;;2.70;1.53;;;;;;;;;;4990264;28;20194;-74
2021/08/03 18:22:44;;;;;;;4.50;1.50;;;;;;;;;;4989662;28;20214;-74
2021/08/03 18:25:59;;;;;;;1.80;1.50;;;;;;;;;;4990487;28;20529;-75
2021/08/03 18:29:28;;;;;;;2.50;1.70;;;;;;;;;;4975677;28;20186;-74
2021/08/03 18:33:03;;;;;;;2.00;1.40;;;;;;;;;;4979557;28;20217;-74
2021/08/03 18:36:08;;;;;;;3.10;1.60;;;;;;;;;;4991342;28;20183;-74
2021/08/03 18:39:14;;;;;;;2.33;1.60;;;;;;;;;;4989693;28;20633;-75
2021/08/03 18:42:19;;;;;;;1.97;1.27;;;;;;;;;;4989357;28;20723;-75